Time;durP1;ratioP1;P1;durP2;ratioP2;P2;SDS_P1;SDS_P2;PMS_P1;PMS_P2;Temp;Humidity;BMP_temperature;BMP_pressure;BME280_temperature;BME280_humidity;BME280_pressure;Samples;Min_cycle;Max_cycle;Signal;HPM_P1;HPM_P2
2021/12/18 00:01:25;;;;;;;6.80;4.55;;;7.40;99.90;;;;;;5051209;28;20465;-50
2021/12/18 00:03:51;;;;;;;7.72;4.80;;;7.40;99.90;;;;;;5046634;28;20021;-53
2021/12/18 00:06:17;;;;;;;16.88;8.27;;;7.30;99.90;;;;;;5049185;28;20479;-49
2021/12/18 00:08:43;;;;;;;7.70;4.90;;;7.30;99.90;;;;;;5051160;28;20044;-49
2021/12/18 00:11:10;;;;;;;11.25;6.53;;;7.30;99.90;;;;;;5052599;28;20049;-48
2021/12/18 00:13:36;;;;;;;7.65;4.72;;;7.30;99.90;;;;;;5033198;28;20025;-51
2021/12/18 00:16:02;;;;;;;11.27;7.22;;;7.30;99.90;;;;;;5052047;28;20101;-50
2021/12/18 00:18:29;;;;;;;17.33;10.98;;;7.30;99.90;;;;;;5049858;28;20090;-49
2021/12/18 00:20:55;;;;;;;8.52;4.88;;;7.30;99.90;;;;;;5051860;28;20103;-48
2021/12/18 00:23:20;;;;;;;7.82;5.00;;;7.30;99.90;;;;;;5043908;28;20061;-56
2021/12/18 00:25:46;;;;;;;22.25;11.98;;;7.30;99.90;;;;;;5052183;28;20033;-48
2021/12/18 00:28:12;;;;;;;5.80;3.92;;;7.30;99.90;;;;;;5050906;28;20075;-53
2021/12/18 00:30:38;;;;;;;6.95;3.78;;;7.30;99.90;;;;;;5044036;28;20441;-51
2021/12/18 00:33:05;;;;;;;9.73;5.55;;;7.30;99.90;;;;;;5041816;28;20049;-51
2021/12/18 00:35:33;;;;;;;7.80;4.68;;;7.30;99.90;;;;;;5051455;28;20037;-51
2021/12/18 00:37:59;;;;;;;9.15;5.10;;;7.30;99.90;;;;;;5044556;28;20025;-49
2021/12/18 00:40:30;;;;;;;6.32;4.13;;;7.20;99.90;;;;;;5051412;28;20529;-52
2021/12/18 00:43:01;;;;;;;6.38;3.70;;;7.30;99.90;;;;;;5049976;28;20465;-49
2021/12/18 00:45:29;;;;;;;5.60;3.33;;;7.30;99.90;;;;;;5050486;28;20071;-50
2021/12/18 00:47:55;;;;;;;5.00;3.45;;;7.30;99.90;;;;;;5046038;28;20391;-50
2021/12/18 00:50:25;;;;;;;6.30;2.83;;;7.30;99.90;;;;;;5047938;28;20083;-52
2021/12/18 00:52:51;;;;;;;5.13;3.50;;;7.30;99.90;;;;;;5041711;28;20099;-49
2021/12/18 00:55:20;;;;;;;6.22;3.38;;;7.30;99.90;;;;;;5052088;28;20029;-50
2021/12/18 00:57:46;;;;;;;5.85;3.58;;;7.30;99.90;;;;;;5045711;28;20029;-51
2021/12/18 01:00:15;;;;;;;7.10;3.72;;;7.20;99.90;;;;;;5051814;28;20017;-49
2021/12/18 01:02:44;;;;;;;8.75;4.68;;;7.30;99.90;;;;;;5049606;28;20129;-50
2021/12/18 01:05:11;;;;;;;9.50;4.97;;;7.30;99.90;;;;;;5051767;28;20094;-49
2021/12/18 01:07:37;;;;;;;12.90;6.40;;;7.30;99.90;;;;;;5042914;28;20482;-48
2021/12/18 01:12:50;;;;;;;19.27;8.23;;;7.30;99.90;;;;;;5048926;28;20106;-51
2021/12/18 01:15:22;;;;;;;24.05;10.20;;;7.30;99.90;;;;;;5050174;28;20024;-52
2021/12/18 01:23:17;;;;;;;22.25;9.63;;;7.30;99.90;;;;;;5050497;28;20091;-50
2021/12/18 01:25:43;;;;;;;23.30;10.45;;;7.30;99.90;;;;;;5044249;28;20032;-48
2021/12/18 01:28:09;;;;;;;25.13;10.00;;;7.30;99.90;;;;;;5049551;28;20483;-50
2021/12/18 01:30:35;;;;;;;24.98;9.77;;;7.30;99.90;;;;;;5050499;28;20449;-51
2021/12/18 01:33:01;;;;;;;24.05;9.60;;;7.30;99.90;;;;;;5038473;28;20037;-52
2021/12/18 01:35:27;;;;;;;23.30;10.10;;;7.30;99.90;;;;;;5046209;28;20040;-52
2021/12/18 01:37:53;;;;;;;27.77;10.93;;;7.30;99.90;;;;;;5043995;28;20021;-50
2021/12/18 01:40:21;;;;;;;27.63;10.65;;;7.30;99.90;;;;;;5042010;28;20108;-49
2021/12/18 01:53:40;;;;;;;20.52;8.07;;;7.30;99.90;;;;;;5049918;28;20798;-48
2021/12/18 01:56:06;;;;;;;24.83;9.02;;;7.30;99.90;;;;;;5050931;28;20029;-48
2021/12/18 01:58:33;;;;;;;27.25;9.57;;;7.40;99.90;;;;;;5050213;28;20032;-49
2021/12/18 02:01:01;;;;;;;23.17;9.23;;;7.30;99.90;;;;;;5050494;28;20025;-51
2021/12/18 02:03:27;;;;;;;24.77;9.02;;;7.30;99.90;;;;;;5049742;28;20100;-50
2021/12/18 02:05:52;;;;;;;23.77;8.00;;;7.30;99.90;;;;;;5050171;28;20115;-47
2021/12/18 02:08:21;;;;;;;26.17;8.07;;;7.30;99.90;;;;;;5034571;28;20590;-51
2021/12/18 02:10:51;;;;;;;20.23;7.50;;;7.30;99.90;;;;;;5034708;28;20103;-50
2021/12/18 02:21:29;;;;;;;15.02;6.28;;;7.30;99.90;;;;;;5042183;28;20048;-48
2021/12/18 02:23:56;;;;;;;16.92;6.03;;;7.30;99.90;;;;;;5045660;28;20099;-47
2021/12/18 02:26:22;;;;;;;15.95;6.18;;;7.30;99.90;;;;;;5046552;28;20029;-52
2021/12/18 02:28:50;;;;;;;16.80;6.57;;;7.30;99.90;;;;;;5048871;28;20029;-50
2021/12/18 02:31:16;;;;;;;15.23;5.78;;;7.30;99.90;;;;;;5047174;28;20059;-49
2021/12/18 02:33:42;;;;;;;12.75;5.47;;;7.30;99.90;;;;;;5040794;28;20060;-47
2021/12/18 02:36:12;;;;;;;14.88;5.75;;;7.30;99.90;;;;;;5049974;28;20067;-50
2021/12/18 02:43:49;;;;;;;13.80;5.10;;;7.30;99.90;;;;;;5039431;28;20037;-49
2021/12/18 02:46:19;;;;;;;11.38;4.63;;;7.30;99.90;;;;;;5030352;28;20066;-49
2021/12/18 02:48:50;;;;;;;10.77;4.57;;;7.30;99.90;;;;;;5033560;28;20025;-49
2021/12/18 02:51:17;;;;;;;10.75;3.83;;;7.30;99.90;;;;;;5049426;28;20041;-48
2021/12/18 02:53:45;;;;;;;9.85;4.25;;;7.30;99.90;;;;;;5044075;28;20032;-48
2021/12/18 02:56:12;;;;;;;12.13;4.22;;;7.30;99.90;;;;;;5049383;28;20017;-51
2021/12/18 02:58:43;;;;;;;11.55;4.15;;;7.40;99.90;;;;;;5045055;28;20021;-53
2021/12/18 03:01:11;;;;;;;11.57;3.83;;;7.40;99.90;;;;;;5049542;28;20367;-49
2021/12/18 03:03:40;;;;;;;10.48;4.13;;;7.40;99.90;;;;;;5044700;28;20033;-52
2021/12/18 03:06:33;;;;;;;9.70;3.45;;;7.30;99.90;;;;;;5048138;28;20033;-55
2021/12/18 03:25:02;;;;;;;15.63;5.47;;;7.40;99.90;;;;;;5049304;28;20078;-51
2021/12/18 03:27:28;;;;;;;17.50;5.22;;;7.40;99.90;;;;;;5043554;28;20025;-56
2021/12/18 03:29:55;;;;;;;15.77;5.43;;;7.40;99.90;;;;;;5049577;28;20068;-55
2021/12/18 03:32:22;;;;;;;13.27;5.50;;;7.40;99.90;;;;;;5041723;28;20403;-56
2021/12/18 03:34:48;;;;;;;15.38;5.75;;;7.40;99.90;;;;;;5052046;28;20056;-55
2021/12/18 03:37:14;;;;;;;15.35;5.80;;;7.40;99.90;;;;;;5049254;28;20037;-55
2021/12/18 03:39:40;;;;;;;10.55;4.20;;;7.40;99.90;;;;;;5052506;28;20048;-56
2021/12/18 03:42:06;;;;;;;9.82;4.22;;;7.40;99.90;;;;;;5049667;28;20041;-54
2021/12/18 03:44:33;;;;;;;9.57;4.18;;;7.40;99.90;;;;;;5053469;28;20033;-56
2021/12/18 03:46:59;;;;;;;10.88;3.75;;;7.40;99.90;;;;;;5041795;28;20051;-57
2021/12/18 03:49:25;;;;;;;10.80;4.20;;;7.40;99.90;;;;;;5051204;28;20112;-56
2021/12/18 03:51:51;;;;;;;12.02;4.47;;;7.40;99.90;;;;;;5046227;28;20072;-55
2021/12/18 03:54:17;;;;;;;14.65;5.38;;;7.40;99.90;;;;;;5052736;28;20458;-55
2021/12/18 03:56:42;;;;;;;13.43;4.97;;;7.40;99.90;;;;;;5050802;28;20402;-55
2021/12/18 03:59:08;;;;;;;11.63;4.53;;;7.40;99.90;;;;;;5047637;28;20033;-57
2021/12/18 04:01:34;;;;;;;12.23;5.15;;;7.50;99.90;;;;;;5048875;28;20060;-57
2021/12/18 04:04:00;;;;;;;11.98;4.53;;;7.50;99.90;;;;;;5047102;28;20045;-57
2021/12/18 04:06:25;;;;;;;14.13;4.63;;;7.50;99.90;;;;;;5051080;28;20114;-56
2021/12/18 04:08:51;;;;;;;12.98;5.07;;;7.50;99.90;;;;;;5053897;28;20352;-54
2021/12/18 04:11:17;;;;;;;10.55;4.63;;;7.50;99.90;;;;;;5051407;28;20625;-55
2021/12/18 04:13:46;;;;;;;9.43;4.50;;;7.50;99.90;;;;;;5052850;28;20475;-51
2021/12/18 04:16:12;;;;;;;12.35;4.53;;;7.50;99.90;;;;;;5044116;28;20120;-54
2021/12/18 04:18:38;;;;;;;13.98;4.80;;;7.50;99.90;;;;;;5051861;28;20025;-53
2021/12/18 04:21:03;;;;;;;12.27;4.63;;;7.50;99.90;;;;;;5044552;28;20498;-56
2021/12/18 04:23:30;;;;;;;12.35;5.43;;;7.50;99.90;;;;;;5050997;28;20028;-53
2021/12/18 04:25:56;;;;;;;13.68;5.05;;;7.50;99.90;;;;;;5043754;28;20029;-54
2021/12/18 04:28:23;;;;;;;11.85;5.25;;;7.50;99.90;;;;;;5051382;28;20100;-55
2021/12/18 04:30:49;;;;;;;10.77;4.55;;;7.50;99.90;;;;;;5045404;28;20371;-52
2021/12/18 04:33:15;;;;;;;10.35;4.95;;;7.50;99.90;;;;;;5051471;28;20033;-52
2021/12/18 04:35:41;;;;;;;9.63;4.50;;;7.50;99.90;;;;;;5044470;28;20302;-49
2021/12/18 04:38:07;;;;;;;11.90;5.00;;;7.50;99.90;;;;;;5052373;28;20074;-53
2021/12/18 04:40:34;;;;;;;9.35;4.88;;;7.50;99.90;;;;;;5044465;28;20032;-51
2021/12/18 04:43:00;;;;;;;8.15;4.13;;;7.50;99.90;;;;;;5049290;28;20486;-51
2021/12/18 04:45:26;;;;;;;7.43;3.90;;;7.50;99.90;;;;;;5050471;28;20029;-49
2021/12/18 04:47:52;;;;;;;7.82;4.10;;;7.50;99.90;;;;;;5045998;28;20042;-49
2021/12/18 04:50:18;;;;;;;6.97;3.67;;;7.50;99.90;;;;;;5045249;28;20021;-52
2021/12/18 04:52:44;;;;;;;6.10;3.90;;;7.50;99.90;;;;;;5050744;28;20025;-51
2021/12/18 04:55:09;;;;;;;7.90;3.60;;;7.50;99.90;;;;;;5048938;28;20134;-51
2021/12/18 04:57:35;;;;;;;5.43;2.60;;;7.50;99.90;;;;;;5050769;28;20517;-53
2021/12/18 05:00:01;;;;;;;5.60;2.75;;;7.50;99.90;;;;;;5050516;28;20505;-52
2021/12/18 05:02:35;;;;;;;6.90;2.70;;;7.40;99.90;;;;;;5049532;28;20057;-55
2021/12/18 05:05:00;;;;;;;6.82;2.55;;;7.50;99.90;;;;;;5048708;28;20490;-49
2021/12/18 05:07:27;;;;;;;4.47;2.17;;;7.50;99.90;;;;;;5051139;28;20041;-51
2021/12/18 05:09:53;;;;;;;4.43;2.38;;;7.40;99.90;;;;;;5048849;28;20173;-55
2021/12/18 05:12:18;;;;;;;4.93;2.05;;;7.40;99.90;;;;;;5051020;28;20056;-50
2021/12/18 05:14:44;;;;;;;4.13;1.95;;;7.40;99.90;;;;;;5048718;28;20037;-51
2021/12/18 05:17:10;;;;;;;3.85;2.13;;;7.40;99.90;;;;;;5051789;28;20044;-50
2021/12/18 05:19:35;;;;;;;5.07;2.50;;;7.50;99.90;;;;;;5048096;28;20375;-54
2021/12/18 05:22:02;;;;;;;5.57;2.65;;;7.40;99.90;;;;;;5050952;28;20078;-56
2021/12/18 05:24:27;;;;;;;4.20;2.65;;;7.40;99.90;;;;;;5048353;28;20025;-54
2021/12/18 05:26:53;;;;;;;4.13;2.45;;;7.40;99.90;;;;;;5051633;28;20040;-51
2021/12/18 05:29:19;;;;;;;3.63;2.40;;;7.40;99.90;;;;;;5049644;28;20041;-51
2021/12/18 05:31:45;;;;;;;4.03;2.20;;;7.40;99.90;;;;;;5050607;28;20109;-53
2021/12/18 05:34:12;;;;;;;5.85;2.72;;;7.40;99.90;;;;;;5049203;28;20069;-53
2021/12/18 05:37:12;;;;;;;4.95;2.58;;;7.30;99.90;;;;;;5030926;28;20096;-50
2021/12/18 05:39:29;;;;;;;4.05;2.30;;;7.30;99.90;;;;;;5049097;28;20037;-52
2021/12/18 05:41:55;;;;;;;4.55;2.30;;;7.30;99.90;;;;;;5049754;28;20086;-56
2021/12/18 05:44:23;;;;;;;4.07;2.45;;;7.20;99.90;;;;;;5048202;28;20079;-54
2021/12/18 05:46:50;;;;;;;5.88;2.88;;;7.30;99.90;;;;;;5048818;28;20036;-52
2021/12/18 05:49:16;;;;;;;5.45;2.78;;;7.30;99.90;;;;;;5050941;28;20123;-52
2021/12/18 05:51:43;;;;;;;6.32;2.72;;;7.30;99.90;;;;;;5048676;28;20120;-53
2021/12/18 05:54:09;;;;;;;4.03;2.63;;;7.20;99.90;;;;;;5049841;28;20025;-54
2021/12/18 05:56:35;;;;;;;3.40;2.10;;;7.30;99.90;;;;;;5048837;28;20386;-52
2021/12/18 05:59:00;;;;;;;4.40;2.00;;;7.30;99.90;;;;;;5050531;28;20025;-51
2021/12/18 06:01:27;;;;;;;5.32;2.25;;;7.20;99.90;;;;;;5041031;28;20075;-52
2021/12/18 06:03:53;;;;;;;3.90;2.00;;;7.30;99.90;;;;;;5049860;28;20025;-54
2021/12/18 06:06:21;;;;;;;3.58;1.80;;;7.30;99.90;;;;;;5041569;28;20405;-53
2021/12/18 06:08:46;;;;;;;3.72;2.08;;;7.30;99.90;;;;;;5050100;28;20084;-50
2021/12/18 06:11:15;;;;;;;3.30;2.13;;;7.30;99.90;;;;;;5043046;28;20548;-51
2021/12/18 06:13:46;;;;;;;4.50;1.85;;;7.30;99.90;;;;;;5047953;28;20884;-51
2021/12/18 06:16:12;;;;;;;4.25;2.20;;;7.30;99.90;;;;;;5050181;28;20021;-52
2021/12/18 06:18:40;;;;;;;3.97;2.60;;;7.30;99.90;;;;;;5048533;28;20156;-53
2021/12/18 06:21:07;;;;;;;5.35;2.58;;;7.30;99.90;;;;;;5049094;28;20086;-51
2021/12/18 06:23:33;;;;;;;5.93;3.13;;;7.30;99.90;;;;;;5046930;28;20056;-53
2021/12/18 06:25:59;;;;;;;6.03;3.30;;;7.30;99.90;;;;;;5050493;28;20053;-52
2021/12/18 06:28:25;;;;;;;7.97;3.92;;;7.30;99.90;;;;;;5044802;28;20013;-51
2021/12/18 06:30:51;;;;;;;7.15;4.32;;;7.30;99.90;;;;;;5049902;28;20032;-53
2021/12/18 06:33:18;;;;;;;6.65;3.90;;;7.30;99.90;;;;;;5044104;28;20340;-53
2021/12/18 06:35:44;;;;;;;6.90;4.25;;;7.30;99.90;;;;;;5044219;28;20025;-53
2021/12/18 06:38:09;;;;;;;9.90;4.60;;;7.30;99.90;;;;;;5043334;28;20033;-51
2021/12/18 06:40:35;;;;;;;5.28;3.60;;;7.30;99.90;;;;;;5049074;28;20351;-51
2021/12/18 06:43:01;;;;;;;4.63;3.28;;;7.30;99.90;;;;;;5040887;28;20041;-49
2021/12/18 06:45:26;;;;;;;4.88;3.13;;;7.30;99.90;;;;;;5048043;28;20106;-50
2021/12/18 06:47:53;;;;;;;3.88;2.60;;;7.30;99.90;;;;;;5049967;28;20029;-50
2021/12/18 06:50:19;;;;;;;3.83;2.92;;;7.30;99.90;;;;;;5049904;28;20136;-50
2021/12/18 06:52:46;;;;;;;5.13;3.00;;;7.30;99.90;;;;;;5046249;28;20048;-49
2021/12/18 06:55:11;;;;;;;3.95;2.80;;;7.30;99.90;;;;;;5049817;28;20032;-49
2021/12/18 06:57:37;;;;;;;4.43;2.75;;;7.30;99.90;;;;;;5044734;28;20044;-49
2021/12/18 07:00:08;;;;;;;5.45;3.28;;;7.30;99.90;;;;;;5045180;28;20086;-49
2021/12/18 07:02:34;;;;;;;7.20;3.00;;;7.30;99.90;;;;;;5046426;28;20025;-49
2021/12/18 07:05:00;;;;;;;6.78;3.03;;;7.30;99.90;;;;;;5049483;28;20036;-50
2021/12/18 07:07:26;;;;;;;5.68;3.20;;;7.30;99.90;;;;;;5047584;28;20029;-52
2021/12/18 07:09:52;;;;;;;5.05;3.00;;;7.30;99.90;;;;;;5049119;28;20513;-50
2021/12/18 07:12:17;;;;;;;4.70;3.45;;;7.30;99.90;;;;;;5047396;28;20033;-49
2021/12/18 07:14:43;;;;;;;6.75;3.25;;;7.30;99.90;;;;;;5041920;28;20458;-49
2021/12/18 07:17:08;;;;;;;7.43;3.75;;;7.20;99.90;;;;;;5048794;28;20089;-48
2021/12/18 07:19:34;;;;;;;8.23;3.92;;;7.20;99.90;;;;;;5048341;28;20387;-50
2021/12/18 07:22:00;;;;;;;6.90;3.88;;;7.20;99.90;;;;;;5045307;28;20443;-47
2021/12/18 07:24:26;;;;;;;6.72;4.05;;;7.20;99.90;;;;;;5046203;28;20112;-47
2021/12/18 07:26:52;;;;;;;8.23;4.22;;;7.20;99.90;;;;;;5049655;28;20115;-48
2021/12/18 07:29:17;;;;;;;7.78;4.25;;;7.20;99.90;;;;;;5045340;28;20087;-50
2021/12/18 07:31:43;;;;;;;9.18;4.40;;;7.20;99.90;;;;;;5045933;28;20029;-54
2021/12/18 07:34:09;;;;;;;7.22;4.30;;;7.20;99.90;;;;;;5045891;28;20032;-50
2021/12/18 07:36:34;;;;;;;7.82;4.70;;;7.20;99.90;;;;;;5048420;28;20029;-50
2021/12/18 07:39:01;;;;;;;7.75;4.05;;;7.20;99.90;;;;;;5048016;28;20029;-50
2021/12/18 07:41:26;;;;;;;10.05;4.15;;;7.20;99.90;;;;;;5046329;28;20029;-49
2021/12/18 07:43:52;;;;;;;7.72;4.25;;;7.20;99.90;;;;;;5040422;28;20037;-50
2021/12/18 07:46:18;;;;;;;7.43;4.00;;;7.30;99.90;;;;;;5048867;28;20508;-52
2021/12/18 07:48:45;;;;;;;7.60;4.22;;;7.30;99.90;;;;;;5044582;28;20459;-52
2021/12/18 07:51:11;;;;;;;6.97;4.07;;;7.30;99.90;;;;;;5043356;28;20548;-51
2021/12/18 07:53:37;;;;;;;8.55;4.05;;;7.30;99.90;;;;;;5035985;28;20033;-52
2021/12/18 07:56:04;;;;;;;9.15;3.90;;;7.30;99.90;;;;;;5043023;28;20344;-50
2021/12/18 07:58:33;;;;;;;7.80;4.10;;;7.30;99.90;;;;;;5046738;28;20032;-52
2021/12/18 08:00:59;;;;;;;7.13;4.10;;;7.30;99.90;;;;;;5037264;28;20500;-52
2021/12/18 08:03:24;;;;;;;10.55;4.28;;;7.40;99.90;;;;;;5046218;28;20119;-53
2021/12/18 08:05:50;;;;;;;7.70;4.00;;;7.30;99.90;;;;;;5042500;28;20044;-53
2021/12/18 08:08:15;;;;;;;8.73;3.92;;;7.30;99.90;;;;;;5041268;28;20025;-52
2021/12/18 08:10:41;;;;;;;9.20;4.00;;;7.40;99.90;;;;;;5041388;28;20040;-53
2021/12/18 08:13:07;;;;;;;8.95;4.90;;;7.30;99.90;;;;;;5041077;28;20048;-54
2021/12/18 08:15:33;;;;;;;9.27;4.93;;;7.30;99.90;;;;;;5048553;28;20045;-55
2021/12/18 08:17:58;;;;;;;12.40;5.55;;;7.30;99.90;;;;;;5050131;28;20064;-54
2021/12/18 08:20:26;;;;;;;10.63;5.40;;;7.30;99.90;;;;;;5051245;28;20044;-52
2021/12/18 08:22:52;;;;;;;9.15;4.80;;;7.30;99.90;;;;;;5052333;28;20029;-53
2021/12/18 08:25:17;;;;;;;8.20;4.53;;;7.30;99.90;;;;;;5045811;28;20103;-54
2021/12/18 08:27:43;;;;;;;9.13;4.78;;;7.30;99.90;;;;;;5049723;28;20029;-52
2021/12/18 08:30:09;;;;;;;6.00;3.22;;;7.40;99.90;;;;;;5051541;28;20056;-54
2021/12/18 08:32:35;;;;;;;5.85;3.17;;;7.30;99.90;;;;;;5045073;28;20573;-52
2021/12/18 08:35:01;;;;;;;5.20;2.90;;;7.30;99.90;;;;;;5047073;28;20112;-52
2021/12/18 08:37:26;;;;;;;7.05;2.72;;;7.30;99.90;;;;;;5049909;28;20116;-55
2021/12/18 08:39:52;;;;;;;6.35;2.45;;;7.40;99.90;;;;;;5052317;28;20152;-54
2021/12/18 08:42:18;;;;;;;4.68;2.10;;;7.40;99.90;;;;;;5049412;28;20437;-55
2021/12/18 08:44:43;;;;;;;6.13;2.28;;;7.40;99.90;;;;;;5044299;28;20483;-56
2021/12/18 08:47:10;;;;;;;4.85;2.17;;;7.30;99.90;;;;;;5050757;28;20052;-53
2021/12/18 08:49:38;;;;;;;3.22;1.80;;;7.40;99.90;;;;;;5042801;28;20056;-56
2021/12/18 08:52:03;;;;;;;2.60;1.92;;;7.40;99.90;;;;;;5044406;28;20029;-53
2021/12/18 08:54:29;;;;;;;4.10;2.10;;;7.40;99.90;;;;;;5051389;28;20116;-57
2021/12/18 08:56:55;;;;;;;3.83;2.03;;;7.40;99.90;;;;;;5045349;28;20124;-54
2021/12/18 08:59:21;;;;;;;3.53;2.33;;;7.40;99.90;;;;;;5045646;28;20056;-55
2021/12/18 09:01:46;;;;;;;4.43;2.30;;;7.40;99.90;;;;;;5049916;28;20025;-55
2021/12/18 09:04:12;;;;;;;5.03;2.60;;;7.40;99.90;;;;;;5043755;28;20485;-56
2021/12/18 09:06:38;;;;;;;3.60;2.30;;;7.30;99.90;;;;;;5043866;28;20025;-56
2021/12/18 09:09:04;;;;;;;4.13;2.70;;;7.40;99.90;;;;;;5049780;28;20086;-52
2021/12/18 09:11:29;;;;;;;5.95;2.92;;;7.30;99.90;;;;;;5048696;28;20391;-54
2021/12/18 09:13:55;;;;;;;5.10;3.03;;;7.30;99.90;;;;;;5050925;28;20051;-56
2021/12/18 09:16:21;;;;;;;3.47;2.20;;;7.30;99.90;;;;;;5048854;28;20116;-54
2021/12/18 09:18:46;;;;;;;4.82;2.50;;;7.30;99.90;;;;;;5050704;28;20554;-56
2021/12/18 09:21:12;;;;;;;5.05;3.05;;;7.20;99.90;;;;;;5051708;28;20487;-54
2021/12/18 09:23:38;;;;;;;5.43;3.30;;;7.20;99.90;;;;;;5050009;28;20487;-51
2021/12/18 09:26:04;;;;;;;7.80;4.05;;;7.20;99.90;;;;;;5051165;28;20082;-53
2021/12/18 09:28:29;;;;;;;6.93;3.60;;;7.20;99.90;;;;;;5050572;28;20035;-54
2021/12/18 09:30:55;;;;;;;5.43;3.58;;;7.20;99.90;;;;;;5050193;28;20151;-51
2021/12/18 09:33:22;;;;;;;6.45;3.58;;;7.20;99.90;;;;;;5050503;28;20391;-56
2021/12/18 09:35:47;;;;;;;5.00;3.30;;;7.30;99.90;;;;;;5050993;28;20498;-53
2021/12/18 09:38:13;;;;;;;5.38;3.50;;;7.30;99.90;;;;;;5051046;28;20051;-55
2021/12/18 09:40:39;;;;;;;8.20;3.40;;;7.30;99.90;;;;;;5050776;28;20116;-53
2021/12/18 09:43:05;;;;;;;6.05;3.03;;;7.40;99.90;;;;;;5050240;28;20036;-50
2021/12/18 09:45:31;;;;;;;5.85;2.90;;;7.40;99.90;;;;;;5050180;28;20048;-50
2021/12/18 09:47:57;;;;;;;4.93;3.03;;;7.40;99.90;;;;;;5050741;28;20072;-52
2021/12/18 09:50:26;;;;;;;7.13;3.42;;;7.40;99.90;;;;;;5050155;28;20021;-53
2021/12/18 09:52:53;;;;;;;5.32;3.10;;;7.40;99.90;;;;;;5050361;28;20025;-52
2021/12/18 09:55:19;;;;;;;7.30;3.65;;;7.40;99.90;;;;;;5050753;28;20388;-51
2021/12/18 09:57:46;;;;;;;6.25;3.22;;;7.50;99.90;;;;;;5050017;28;20047;-53
2021/12/18 10:00:15;;;;;;;6.63;3.70;;;7.50;99.90;;;;;;5050448;28;20040;-53
2021/12/18 10:02:40;;;;;;;6.78;3.65;;;7.50;99.90;;;;;;5047979;28;20029;-51
2021/12/18 10:05:07;;;;;;;5.38;3.30;;;7.60;99.90;;;;;;5051173;28;20206;-51
2021/12/18 10:07:33;;;;;;;9.07;3.58;;;7.50;99.90;;;;;;5050126;28;20025;-51
2021/12/18 10:10:00;;;;;;;7.25;3.47;;;7.50;99.90;;;;;;5050702;28;20524;-52
2021/12/18 10:12:25;;;;;;;8.25;3.20;;;7.60;99.90;;;;;;5049268;28;20036;-49
2021/12/18 10:14:56;;;;;;;7.47;3.92;;;7.60;99.90;;;;;;5050208;28;20033;-51
2021/12/18 10:17:28;;;;;;;11.20;4.03;;;7.60;99.90;;;;;;5050225;28;20569;-54
2021/12/18 10:20:12;;;;;;;9.98;4.45;;;7.60;99.90;;;;;;5050266;28;20060;-51
2021/12/18 10:22:45;;;;;;;9.30;3.58;;;7.60;99.90;;;;;;5049450;28;20028;-50
2021/12/18 10:25:13;;;;;;;15.95;4.55;;;7.60;99.90;;;;;;5050199;28;20479;-52
2021/12/18 10:27:42;;;;;;;13.57;4.50;;;7.70;99.90;;;;;;5049936;28;20155;-52
2021/12/18 10:30:20;;;;;;;9.90;3.90;;;7.70;99.90;;;;;;5050248;28;20031;-54
2021/12/18 10:33:08;;;;;;;16.77;4.78;;;7.70;99.90;;;;;;5049362;28;20073;-50
2021/12/18 10:35:47;;;;;;;15.38;4.30;;;7.70;99.90;;;;;;5049587;28;20028;-49
2021/12/18 10:38:38;;;;;;;11.68;4.50;;;7.70;99.90;;;;;;5050349;28;20028;-48
2021/12/18 10:41:23;;;;;;;12.88;4.53;;;7.70;99.90;;;;;;5049615;28;20025;-48
2021/12/18 10:43:54;;;;;;;15.27;5.18;;;7.80;99.90;;;;;;5049056;28;20090;-48
2021/12/18 10:46:20;;;;;;;16.13;5.55;;;7.80;99.90;;;;;;5050325;28;20117;-48
2021/12/18 10:48:57;;;;;;;19.25;5.45;;;7.80;99.90;;;;;;5049777;28;20116;-48
2021/12/18 10:51:23;;;;;;;14.73;5.32;;;7.80;99.90;;;;;;5047887;28;20033;-48
2021/12/18 10:53:50;;;;;;;31.02;6.63;;;7.80;99.90;;;;;;5049549;28;20032;-48
2021/12/18 10:56:29;;;;;;;16.52;5.45;;;7.90;99.90;;;;;;5049897;28;20112;-49
2021/12/18 10:58:55;;;;;;;15.43;5.07;;;7.90;99.90;;;;;;5050074;28;20461;-50
2021/12/18 11:01:21;;;;;;;20.13;5.93;;;7.90;99.90;;;;;;5049211;28;20029;-49
2021/12/18 11:03:51;;;;;;;19.85;6.10;;;8.00;99.90;;;;;;5049004;28;20054;-51
2021/12/18 11:06:23;;;;;;;18.05;6.07;;;8.00;99.90;;;;;;5049543;28;20020;-48
2021/12/18 11:09:08;;;;;;;23.25;6.72;;;8.00;99.90;;;;;;5049636;28;20475;-49
2021/12/18 11:14:22;;;;;;;21.95;6.72;;;8.10;99.90;;;;;;5049342;28;20029;-49
2021/12/18 11:16:56;;;;;;;21.38;7.05;;;8.10;99.90;;;;;;5049368;28;20047;-51
2021/12/18 11:19:24;;;;;;;20.23;6.65;;;8.10;99.90;;;;;;5048975;28;20087;-50
2021/12/18 11:21:53;;;;;;;19.52;6.72;;;8.20;99.90;;;;;;5049378;28;20104;-52
2021/12/18 11:24:22;;;;;;;23.10;7.25;;;8.20;99.90;;;;;;5049300;28;20075;-48
2021/12/18 11:27:08;;;;;;;20.65;6.70;;;8.30;99.90;;;;;;5049601;28;20028;-50
2021/12/18 11:29:46;;;;;;;19.85;6.28;;;8.30;99.90;;;;;;5049013;28;20171;-48
2021/12/18 11:32:15;;;;;;;23.05;6.43;;;8.30;99.90;;;;;;5048766;28;20114;-50
2021/12/18 11:34:42;;;;;;;25.77;6.72;;;8.40;99.90;;;;;;5049186;28;20040;-52
2021/12/18 11:37:11;;;;;;;20.05;5.10;;;8.40;99.90;;;;;;5049244;28;20049;-49
2021/12/18 11:39:39;;;;;;;23.10;5.32;;;8.40;99.90;;;;;;5049148;28;20115;-54
2021/12/18 11:42:05;;;;;;;24.55;5.50;;;8.50;99.90;;;;;;5048906;28;20040;-52
2021/12/18 11:44:38;;;;;;;30.35;6.30;;;8.50;99.90;;;;;;5049904;28;20029;-50
2021/12/18 11:47:34;;;;;;;21.08;4.75;;;8.40;99.90;;;;;;5049817;28;20033;-49
2021/12/18 11:50:18;;;;;;;18.42;4.90;;;8.50;99.90;;;;;;5049111;28;20107;-50
2021/12/18 11:53:06;;;;;;;21.65;4.95;;;8.50;99.90;;;;;;5048572;28;20032;-50
2021/12/18 11:55:35;;;;;;;16.45;5.53;;;8.40;99.90;;;;;;5052879;28;20082;-52
2021/12/18 11:58:09;;;;;;;38.28;11.90;;;8.50;99.90;;;;;;5053198;28;20037;-50
2021/12/18 12:00:51;;;;;;;19.63;6.07;;;8.50;99.90;;;;;;5052796;28;20036;-51
2021/12/18 12:03:31;;;;;;;22.67;7.18;;;8.50;99.90;;;;;;5052669;28;20091;-51
2021/12/18 12:05:58;;;;;;;20.73;4.82;;;8.60;99.90;;;;;;5053058;28;20482;-51
2021/12/18 12:08:40;;;;;;;23.88;6.20;;;8.60;99.90;;;;;;5052865;28;20025;-52
2021/12/18 12:11:23;;;;;;;19.33;6.20;;;8.60;99.90;;;;;;5054342;28;20021;-50
2021/12/18 12:14:11;;;;;;;20.75;5.07;;;8.70;99.90;;;;;;5052497;28;20052;-52
2021/12/18 12:16:43;;;;;;;21.35;5.97;;;8.70;99.90;;;;;;5052554;28;20032;-52
2021/12/18 12:19:13;;;;;;;21.30;5.00;;;8.70;99.90;;;;;;5052677;28;20057;-49
2021/12/18 12:21:49;;;;;;;22.55;5.10;;;8.70;99.90;;;;;;5052764;28;20091;-51
2021/12/18 12:24:18;;;;;;;29.35;7.05;;;8.70;99.90;;;;;;5052793;28;20264;-52
2021/12/18 12:26:44;;;;;;;26.20;6.10;;;8.70;99.90;;;;;;5052317;28;20457;-55
2021/12/18 12:29:11;;;;;;;25.65;6.03;;;8.70;99.90;;;;;;5052771;28;20078;-52
2021/12/18 12:31:51;;;;;;;26.92;6.00;;;8.80;99.90;;;;;;5051916;28;20025;-53
2021/12/18 12:34:21;;;;;;;18.77;5.75;;;8.80;99.90;;;;;;5052192;28;20021;-50
2021/12/18 12:36:47;;;;;;;19.88;6.13;;;8.80;99.90;;;;;;5052473;28;20104;-52
2021/12/18 12:39:14;;;;;;;25.38;6.22;;;8.80;99.90;;;;;;5052407;28;20025;-50
2021/12/18 12:41:51;;;;;;;21.20;6.10;;;8.80;99.90;;;;;;5051366;28;20793;-49
2021/12/18 12:44:24;;;;;;;30.17;6.40;;;8.80;99.90;;;;;;5051936;28;20033;-50
2021/12/18 12:47:15;;;;;;;23.88;6.72;;;8.90;99.90;;;;;;5051994;28;20091;-51
2021/12/18 12:49:41;;;;;;;27.25;7.80;;;8.90;99.90;;;;;;5051703;28;20158;-52
2021/12/18 12:52:10;;;;;;;21.05;6.57;;;9.00;99.90;;;;;;5051658;28;20039;-50
2021/12/18 12:54:54;;;;;;;19.75;6.13;;;9.00;99.90;;;;;;5051246;28;20033;-48
2021/12/18 12:57:27;;;;;;;29.70;6.35;;;9.00;99.90;;;;;;5051893;28;20045;-53
2021/12/18 12:59:59;;;;;;;20.35;6.22;;;9.00;99.90;;;;;;5051716;28;20016;-53
2021/12/18 13:02:26;;;;;;;27.67;6.30;;;9.10;99.90;;;;;;5050595;28;20494;-52
2021/12/18 13:05:10;;;;;;;29.00;7.10;;;9.10;99.90;;;;;;5051297;28;20104;-51
2021/12/18 13:07:48;;;;;;;26.98;6.90;;;9.20;99.90;;;;;;5051262;28;20028;-50
2021/12/18 13:10:23;;;;;;;20.85;6.50;;;9.20;99.90;;;;;;5051876;28;20033;-50
2021/12/18 13:13:07;;;;;;;27.15;6.75;;;9.10;99.90;;;;;;5051040;28;20028;-52
2021/12/18 13:15:57;;;;;;;35.08;7.28;;;9.10;99.90;;;;;;5052337;28;20132;-50
2021/12/18 13:18:37;;;;;;;23.77;6.65;;;9.10;99.90;;;;;;5051673;28;20109;-55
2021/12/18 13:21:06;;;;;;;27.90;6.60;;;9.10;99.90;;;;;;5051638;28;20038;-53
2021/12/18 13:23:44;;;;;;;21.58;6.32;;;9.10;99.90;;;;;;5050496;28;20036;-49
2021/12/18 13:26:16;;;;;;;33.47;6.75;;;9.10;99.90;;;;;;5051731;28;20052;-50
2021/12/18 13:28:54;;;;;;;24.25;5.15;;;9.00;99.90;;;;;;5051341;28;20124;-50
2021/12/18 13:31:22;;;;;;;30.95;6.45;;;8.90;99.90;;;;;;5051698;28;20146;-50
2021/12/18 13:33:54;;;;;;;20.38;5.13;;;9.00;99.90;;;;;;5050783;28;20029;-55
2021/12/18 13:36:20;;;;;;;21.77;5.20;;;9.00;99.90;;;;;;5051165;28;20025;-56
2021/12/18 13:38:46;;;;;;;25.83;5.38;;;9.00;99.90;;;;;;5050647;28;20067;-55
2021/12/18 13:41:15;;;;;;;28.27;5.22;;;9.00;99.90;;;;;;5051138;28;20044;-53
2021/12/18 13:43:41;;;;;;;27.48;5.15;;;9.00;99.90;;;;;;5049813;28;20033;-54
2021/12/18 13:46:16;;;;;;;33.42;5.55;;;9.10;99.90;;;;;;5050657;28;20495;-54
2021/12/18 13:48:44;;;;;;;23.52;4.40;;;9.10;99.90;;;;;;5050380;28;20055;-53
2021/12/18 13:51:17;;;;;;;27.15;5.07;;;9.10;99.90;;;;;;5050733;28;20025;-51